Latest Weather Observations for Hamilton

IDV60801

Issued at 10:05 am EST Wednesday 3 September 2014 (issued every 30 minutes, with the page automatically refreshed every 10 minutes)

About weather observations | Map of weather stations | Latest weather observations for VIC | Other Formats
Station Details ID: 090173 Name: HAMILTON AIRPORT Lat: -37.65 Lon: 142.06 Height: 241.1 m
Data from the previous 72 hours. | See also: Recent months at Hamilton
Date/Time
EST
Temp
°C
App
Temp
°C
Dew
Point
Rel
Hum
%
Delta-T
°C
Wind Press
QNH
hPa
Press
MSL
hPa
Rain
since 9 am
mm
Dir
 
Spd
km/h
Gust
km/h
Spd
kts
Gust
kts
03/10:00am 9.1 8.1 9.0 99 0.0 N 4 7 2 4 1024.0 1024.2 0.0
03/09:30am 8.0 6.8 7.9 99 0.0 NW 4 7 2 4 1024.1 1024.3 0.0
03/09:00am 6.2 4.5 6.1 99 0.0 W 4 7 2 4 1024.3 1024.5 -
03/08:30am 5.4 3.0 5.3 99 0.0 W 7 9 4 5 1024.7 1024.9 -
03/08:04am 4.2 1.8 4.1 99 0.0 WNW 6 7 3 4 1024.7 1024.9 -
03/08:00am 4.0 1.5 3.9 99 0.0 WNW 6 9 3 5 1024.7 1024.9 -
03/07:30am 2.2 -0.6 2.1 99 0.0 W 6 7 3 4 1024.6 1024.8 -
03/07:00am 1.4 -1.1 1.3 99 0.0 W 4 7 2 4 1024.5 1024.7 -
03/06:54am 1.8 0.1 1.7 99 0.0 CALM 0 7 0 4 1024.5 1024.7 -
03/06:41am 1.7 -0.4 1.6 99 0.0 WNW 2 6 1 3 1024.5 1024.7 -
03/06:34am 2.0 0.3 1.9 99 0.0 CALM 0 0 0 0 1024.4 1024.6 -
03/06:30am 2.1 0.4 2.0 99 0.0 CALM 0 0 0 0 1024.4 1024.6 -
03/06:00am 2.6 1.0 2.5 99 0.0 SW 0 0 0 0 1024.1 1024.3 -
03/05:35am 3.2 1.3 3.1 99 0.0 SW 2 6 1 3 1023.8 1024.1 -
03/05:30am 3.3 1.1 3.2 99 0.0 SW 4 6 2 3 1023.8 1024.1 -
03/05:00am 3.6 1.1 3.5 99 0.0 WSW 6 7 3 4 1023.8 1024.1 -
03/04:30am 3.7 1.2 3.6 99 0.0 SW 6 7 3 4 1023.7 1024.0 -
03/04:00am 3.6 0.9 3.5 99 0.0 SW 7 9 4 5 1023.8 1024.1 -
03/03:30am 4.0 1.3 3.9 99 0.0 SW 7 7 4 4 1024.0 1024.2 -
03/03:08am 3.9 0.8 3.8 99 0.0 WSW 9 11 5 6 1024.2 1024.4 -
03/03:00am 4.4 1.8 4.3 99 0.0 W 7 11 4 6 1024.3 1024.5 0.4
03/02:30am 5.6 3.4 5.5 99 0.0 SSW 6 6 3 3 1024.6 1024.8 -
03/02:00am 5.8 3.7 5.7 99 0.0 SW 6 7 3 4 1024.9 1025.1 -
03/01:30am 5.9 3.8 5.8 99 0.0 WSW 6 7 3 4 1025.0 1025.2 -
03/01:00am 6.0 2.6 5.9 99 0.0 SW 13 17 7 9 1025.2 1025.4 -
03/12:53am 5.9 2.5 5.8 99 0.0 SW 13 17 7 9 1025.2 1025.4 -
03/12:47am 5.9 2.1 5.8 99 0.0 SW 15 20 8 11 1025.3 1025.5 -
03/12:33am 5.8 2.0 5.7 99 0.0 SW 15 19 8 10 1025.3 1025.5 -
03/12:30am 5.7 2.2 5.6 99 0.0 SW 13 17 7 9 1025.3 1025.5 -
03/12:28am 5.5 2.0 5.4 99 0.0 SW 13 17 7 9 1025.2 1025.4 -
03/12:00am 4.8 1.5 4.7 99 0.0 SSW 11 13 6 7 1025.0 1025.2 -
 
Date/Time
EST
Temp
°C
App
Temp
°C
Dew
Point
Rel
Hum
%
Delta-T
°C
Wind Press
QNH
hPa
Press
MSL
hPa
Rain
since 9 am
mm
Dir
 
Spd
km/h
Gust
km/h
Spd
kts
Gust
kts
02/11:30pm 6.1 3.9 6.0 99 0.0 SSW 7 13 4 7 1025.1 1025.3 -
02/11:14pm 5.2 2.4 5.1 99 0.0 SW 9 13 5 7 1025.4 1025.6 -
02/11:00pm 5.4 2.6 5.3 99 0.0 WSW 9 13 5 7 1025.3 1025.5 -
02/10:49pm 5.0 1.8 4.9 99 0.0 WSW 11 13 6 7 1025.5 1025.7 -
02/10:30pm 5.5 2.8 5.4 99 0.0 SSW 9 11 5 6 1025.4 1025.6 -
02/10:00pm 6.3 3.7 6.2 99 0.0 SSW 9 13 5 7 1025.4 1025.6 -
02/09:30pm 5.8 3.5 5.7 99 0.0 SW 7 9 4 5 1025.3 1025.5 -
02/09:00pm 5.6 3.3 5.5 99 0.0 SSW 7 9 4 5 1025.2 1025.4 0.0
02/08:30pm 5.6 2.9 5.5 99 0.0 S 9 11 5 6 1025.0 1025.2 -
02/08:00pm 5.9 3.2 5.5 97 0.2 S 9 11 5 6 1024.9 1025.1 -
02/07:30pm 7.5 3.5 6.6 94 0.4 S 17 20 9 11 1024.7 1024.9 -
02/07:00pm 8.0 3.9 6.1 88 0.9 S 17 20 9 11 1024.5 1024.7 -
02/06:30pm 7.2 3.6 5.0 86 1.0 S 13 17 7 9 1024.1 1024.3 -
02/06:00pm 7.8 4.1 4.6 80 1.4 SSW 13 15 7 8 1023.6 1023.9 -
02/05:30pm 8.7 4.7 4.7 76 1.8 S 15 19 8 10 1023.4 1023.7 -
02/05:00pm 9.9 4.1 4.5 69 2.4 S 24 32 13 17 1023.1 1023.3 -
02/04:30pm 11.2 5.5 4.9 65 2.9 S 24 32 13 17 1022.7 1022.9 -
02/04:00pm 11.5 5.0 4.7 63 3.1 SSW 28 35 15 19 1022.4 1022.6 -
02/03:30pm 12.3 6.3 5.2 62 3.3 SSW 26 33 14 18 1022.2 1022.4 -
02/03:00pm 11.9 5.8 4.6 61 3.3 S 26 35 14 19 1022.1 1022.3 -
02/02:30pm 12.5 6.7 4.2 57 3.8 SSW 24 37 13 20 1021.9 1022.1 -
02/02:00pm 12.4 7.0 6.5 67 2.8 SSW 24 32 13 17 1021.9 - 0.0
02/01:30pm 10.9 5.3 5.2 68 2.6 S 24 32 13 17 1021.9 - 0.0
02/01:00pm 12.1 5.8 5.5 64 3.1 S 28 35 15 19 1022.1 - 0.0
02/12:30pm 11.4 5.5 5.9 69 2.6 S 26 35 14 19 1022.2 - 0.0
02/12:00pm 10.5 4.4 6.8 78 1.8 S 28 39 15 21 1022.3 1022.5 0.0
02/11:30am 11.4 5.4 7.1 75 2.1 S 28 39 15 21 1022.3 1022.5 0.0
02/11:00am 9.6 2.6 6.7 82 1.4 S 33 46 18 25 1022.4 1022.6 0.0
02/10:30am 11.3 5.6 6.8 74 2.2 S 26 37 14 20 1022.1 1022.3 0.0
02/10:00am 10.6 5.7 6.9 78 1.8 SSW 22 32 12 17 1021.9 1022.1 0.0
02/09:30am 9.8 4.9 6.9 82 1.4 SSW 22 32 12 17 1021.7 1021.9 0.0
02/09:00am 9.0 5.4 8.2 95 0.4 SSW 17 22 9 12 1021.4 1021.6 9.2
02/08:30am 7.6 4.2 7.5 99 0.0 SSW 15 19 8 10 1021.1 1021.3 9.2
02/08:00am 6.4 2.7 6.3 99 0.0 SSW 15 20 8 11 1020.6 1020.8 9.2
02/07:30am 5.7 2.2 5.6 99 0.0 SSW 13 17 7 9 1020.0 1020.2 9.2
02/07:00am 5.1 1.5 5.0 99 0.0 SSW 13 17 7 9 1019.6 1019.7 9.2
02/06:30am 5.4 1.5 5.3 99 0.0 SSW 15 19 8 10 1019.1 1019.3 9.2
02/06:00am 6.0 2.6 5.9 99 0.0 SSW 13 17 7 9 1018.6 1018.8 9.2
02/05:30am 5.1 2.3 5.0 99 0.0 WSW 9 11 5 6 1018.0 1018.2 9.2
02/05:00am 5.7 2.2 5.6 99 0.0 SW 13 13 7 7 1017.6 1017.8 9.2
02/04:30am 5.8 2.7 5.7 99 0.0 SW 11 13 6 7 1017.2 1017.4 9.2
02/04:00am 6.7 3.4 6.6 99 0.0 SW 13 17 7 9 1016.9 1017.1 9.2
02/03:30am 6.6 2.9 6.5 99 0.0 SW 15 17 8 9 1016.7 1016.9 9.0
02/03:00am 6.7 2.7 6.6 99 0.0 SSW 17 22 9 12 1016.5 1016.7 9.0
02/02:30am 6.6 2.0 6.5 99 0.0 SW 20 28 11 15 1016.4 1016.5 8.4
02/02:00am 5.0 1.4 4.9 99 0.0 WSW 13 15 7 8 1016.1 1016.2 8.4
02/01:30am 4.9 2.4 4.8 99 0.0 SW 7 11 4 6 1015.9 1016.0 8.4
02/01:00am 4.6 1.3 4.5 99 0.0 SW 11 13 6 7 1015.7 1015.8 8.4
02/12:30am 5.3 2.1 5.2 99 0.0 W 11 13 6 7 1015.5 1015.6 8.4
02/12:00am 5.9 2.5 5.8 99 0.0 W 13 15 7 8 1015.4 1015.5 8.4
 
Date/Time
EST
Temp
°C
App
Temp
°C
Dew
Point
Rel
Hum
%
Delta-T
°C
Wind Press
QNH
hPa
Press
MSL
hPa
Rain
since 9 am
mm
Dir
 
Spd
km/h
Gust
km/h
Spd
kts
Gust
kts
01/11:30pm 5.4 2.2 5.3 99 0.0 W 11 15 6 8 1015.1 1015.3 8.4
01/11:00pm 6.0 3.0 5.9 99 0.0 W 11 15 6 8 1015.0 1015.2 8.4
01/10:30pm 6.3 3.3 6.2 99 0.0 W 11 13 6 7 1014.8 1015.0 8.4
01/10:00pm 5.9 2.9 5.8 99 0.0 WSW 11 13 6 7 1014.6 1014.8 8.4
01/09:30pm 6.0 2.2 5.9 99 0.0 WSW 15 17 8 9 1014.3 1014.5 8.4
01/09:00pm 6.2 2.5 6.1 99 0.0 W 15 17 8 9 1014.1 1014.3 8.4
01/08:30pm 7.1 3.5 6.7 97 0.2 WSW 15 17 8 9 1013.9 1014.1 8.4
01/08:00pm 8.6 5.6 7.7 94 0.4 WSW 13 17 7 9 1013.6 1013.8 8.4
01/07:30pm 8.9 5.3 8.5 97 0.2 SW 17 20 9 11 1013.3 1013.5 8.4
01/07:00pm 8.9 5.8 8.8 99 0.0 SW 15 20 8 11 1012.8 1012.9 8.4
01/06:30pm 8.4 6.2 8.0 97 0.2 S 9 13 5 7 1012.4 1012.5 8.4
01/06:00pm 9.4 5.5 8.5 94 0.4 SW 19 32 10 17 1012.0 1012.1 8.2
01/05:30pm 9.7 5.6 8.5 92 0.6 SW 20 26 11 14 1011.6 1011.7 8.2
01/05:00pm 10.5 7.2 9.6 94 0.5 SW 17 22 9 12 1011.1 1011.2 8.2
01/04:30pm 10.5 7.3 10.0 97 0.3 WSW 17 22 9 12 1010.6 1010.8 8.2
01/04:00pm 10.4 6.6 9.2 92 0.6 WSW 19 24 10 13 1010.6 1010.8 8.0
01/03:30pm 10.7 7.3 9.3 91 0.7 WSW 17 22 9 12 1010.1 1010.3 8.0
01/03:00pm 9.7 8.3 9.6 99 0.1 WNW 7 11 4 6 1010.0 1010.2 8.0
01/02:30pm 8.7 7.2 8.6 99 0.0 SE 6 9 3 5 1009.7 1009.9 8.0
01/02:00pm 8.4 4.4 8.3 99 0.0 WSW 19 24 10 13 1010.3 1010.5 7.2
01/01:34pm 8.5 4.0 8.4 99 0.0 SW 22 33 12 18 1010.2 1010.4 5.4
01/01:30pm 8.5 4.0 8.4 99 0.0 SW 22 33 12 18 1010.2 1010.4 5.2
01/01:19pm 8.6 2.2 8.5 99 0.0 SW 32 50 17 27 1010.1 1010.3 4.6
01/01:12pm 8.7 1.7 8.3 97 0.2 WSW 35 50 19 27 1010.1 1010.3 2.6
01/01:07pm 10.0 3.8 9.2 95 0.4 WSW 32 37 17 20 1009.8 1010.0 1.8
01/01:00pm 10.8 8.8 10.0 95 0.4 SW 11 15 6 8 1009.6 1009.8 1.6
01/12:30pm 11.3 8.1 10.0 92 0.7 WSW 17 19 9 10 1009.7 1009.9 1.2
01/12:00pm 12.5 10.0 9.7 83 1.4 WSW 13 17 7 9 1009.6 1009.8 1.2
01/11:30am 12.0 9.6 10.2 89 0.9 SW 13 20 7 11 1010.0 1010.2 1.2
01/11:00am 11.3 8.0 10.8 97 0.3 SW 19 24 10 13 1010.2 1010.4 1.2
01/10:39am 10.5 7.0 10.3 99 0.1 SW 19 24 10 13 1010.1 1010.3 1.2
01/10:30am 10.6 7.0 10.4 99 0.1 WSW 20 24 11 13 1010.0 1010.2 1.2
01/10:00am 10.7 7.7 10.5 99 0.1 SW 17 22 9 12 1009.8 1010.0 1.2
01/09:30am 10.5 7.4 10.3 99 0.1 WSW 17 20 9 11 1009.5 1009.8 1.2
01/09:00am 10.8 7.8 10.6 99 0.1 NW 17 19 9 10 1009.3 1009.6 5.0
01/08:30am 10.6 7.2 10.4 99 0.1 NW 19 28 10 15 1009.0 1009.3 4.8
01/08:22am 10.4 7.7 10.2 99 0.1 NW 15 19 8 10 1009.0 1009.3 4.8
01/08:00am 10.1 7.7 9.9 99 0.1 NNW 13 17 7 9 1008.9 1009.2 4.8
01/07:30am 9.7 7.6 9.6 99 0.1 NNW 11 15 6 8 1008.5 1008.8 4.4
01/07:00am 9.8 7.3 9.7 99 0.1 NNW 13 17 7 9 1008.5 1008.8 4.2
01/06:30am 10.0 7.2 9.9 99 0.1 NNW 15 19 8 10 1008.3 1008.6 4.2
01/06:22am 10.1 6.9 9.9 99 0.1 NW 17 19 9 10 1008.4 1008.7 4.2
01/06:00am 10.3 7.1 10.1 99 0.1 NNW 17 20 9 11 1008.3 1008.6 4.2
01/05:30am 10.6 7.5 10.4 99 0.1 NNW 17 20 9 11 1008.3 1008.6 3.4
01/05:00am 10.7 8.4 10.5 99 0.1 NNW 13 17 7 9 1008.1 1008.4 2.2
01/04:30am 10.6 8.3 10.4 99 0.1 NNW 13 15 7 8 1007.9 1008.2 0.8
01/04:17am 10.7 8.8 10.5 99 0.1 NW 11 15 6 8 1007.9 1008.2 0.6
01/04:00am 10.6 8.3 10.3 98 0.2 WNW 13 19 7 10 1007.9 1008.2 0.4
01/03:30am 10.9 7.6 9.7 92 0.6 WNW 17 24 9 13 1008.2 1008.5 0.0
01/03:00am 12.0 8.0 8.3 78 1.9 W 19 30 10 16 1008.1 1008.4 0.0
01/02:30am 12.8 9.3 7.0 68 2.8 WNW 15 22 8 12 1008.7 1009.0 0.0
01/02:00am 13.6 9.0 5.7 59 3.8 WNW 19 26 10 14 1008.5 1008.8 0.0
01/01:30am 13.6 8.8 4.7 55 4.2 WNW 19 22 10 12 1008.0 1008.3 0.0
01/01:00am 14.5 9.4 4.2 50 4.8 NNW 20 28 11 15 1007.8 1008.1 0.0
01/12:30am 15.0 9.8 3.8 47 5.2 NNW 20 33 11 18 1007.8 1008.1 0.0
01/12:00am 12.9 10.2 5.6 61 3.5 N 9 11 5 6 1008.1 1008.4 0.0
 
Date/Time
EST
Temp
°C
App
Temp
°C
Dew
Point
Rel
Hum
%
Delta-T
°C
Wind Press
QNH
hPa
Press
MSL
hPa
Rain
since 9 am
mm
Dir
 
Spd
km/h
Gust
km/h
Spd
kts
Gust
kts
31/11:30pm 13.7 9.4 5.3 57 4.0 N 17 20 9 11 1008.3 1008.6 0.0
31/11:00pm 13.5 9.6 5.4 58 3.9 N 15 17 8 9 1008.4 1008.7 0.0
31/10:30pm 14.6 10.2 4.9 52 4.6 N 17 20 9 11 1009.0 1009.3 0.0
31/10:00pm 14.9 10.5 4.6 50 4.9 N 17 22 9 12 1009.4 1009.7 0.0
31/09:30pm 14.9 10.3 5.4 53 4.6 N 19 22 10 12 1009.7 1010.0 0.0
31/09:00pm 14.4 10.2 5.7 56 4.2 N 17 20 9 11 1010.0 1010.3 0.0
31/08:30pm 13.8 10.4 5.9 59 3.8 NNW 13 15 7 8 1010.3 1010.6 0.0
31/08:00pm 14.7 10.6 6.0 56 4.2 NW 17 20 9 11 1010.3 1010.6 0.0
31/07:30pm 15.8 11.3 6.0 52 4.8 N 19 24 10 13 1009.9 1010.2 0.0
31/07:00pm 16.1 11.4 6.0 51 5.0 NNE 20 24 11 13 1009.6 1009.9 0.0
31/06:30pm 17.1 11.9 5.7 47 5.6 N 22 28 12 15 1010.1 1010.4 0.0
31/06:00pm 17.0 11.9 5.9 48 5.5 N 22 28 12 15 1010.6 1010.9 0.0
31/05:30pm 17.6 12.5 6.2 47 5.7 N 22 30 12 16 1010.6 1010.9 0.0
31/05:00pm 17.9 14.3 8.2 53 5.0 NW 17 22 9 12 1011.3 1011.6 0.0
31/04:30pm 18.7 14.0 7.8 49 5.6 NW 22 30 12 16 1011.2 1011.5 0.0
31/04:00pm 19.3 13.8 7.4 46 6.1 NW 26 39 14 21 1011.2 1011.5 0.0
31/03:30pm 19.5 16.9 12.0 62 4.2 N 17 24 9 13 1011.3 1011.6 0.0
31/03:00pm 19.2 14.8 10.5 57 4.7 N 24 32 13 17 1011.7 1012.0 0.0
31/02:30pm 19.2 14.0 10.2 56 4.9 N 28 37 15 20 1012.1 1012.4 0.0
31/02:00pm 19.2 14.1 10.7 58 4.7 NNW 28 37 15 20 1012.5 1012.8 0.0
31/01:30pm 19.8 13.9 10.5 55 5.1 NNW 32 43 17 23 1012.9 1013.2 0.0
31/01:00pm 19.6 14.0 10.3 55 5.1 NNW 30 41 16 22 1013.4 1013.7 0.0
31/12:30pm 18.2 13.7 10.1 59 4.4 N 24 33 13 18 1014.1 1014.4 0.0
31/12:00pm 18.3 14.6 11.4 64 3.8 N 22 28 12 15 1014.5 1014.8 0.0
31/11:30am 17.0 12.3 9.4 61 4.0 N 24 35 13 19 1014.9 1015.3 0.0
31/11:00am 16.2 12.4 9.8 66 3.4 N 20 30 11 16 1015.3 1015.6 0.0
31/10:30am 15.9 11.7 9.6 66 3.3 N 22 32 12 17 1015.5 1015.8 0.0

Other Formats:

Comma delimited format used in spreadsheet applications
http://www.bom.gov.au/fwo/IDV60801/IDV60801.94829.axf

JavaScript Object Notation format (JSON) in row-major order
http://www.bom.gov.au/fwo/IDV60801/IDV60801.94829.json